Time;durP1;ratioP1;P1;durP2;ratioP2;P2;SDS_P1;SDS_P2;PMS_P1;PMS_P2;Temp;Humidity;BMP_temperature;BMP_pressure;BME280_temperature;BME280_humidity;BME280_pressure;Samples;Min_cycle;Max_cycle;Signal;HPM_P1;HPM_P2
2021/04/24 00:01:35;;;;;;;6.35;2.40;;;;;;;19.08;33.66;102637.41;5060589;28;20032;-73
2021/04/24 00:04:01;;;;;;;6.85;2.40;;;;;;;19.11;33.81;102636.41;5059891;28;20020;-73
2021/04/24 00:06:26;;;;;;;7.75;2.30;;;;;;;19.11;34.05;102635.56;5058387;28;20578;-73
2021/04/24 00:08:52;;;;;;;5.18;2.15;;;;;;;19.08;34.07;102629.31;5052632;28;20048;-73
2021/04/24 00:11:18;;;;;;;7.18;2.17;;;;;;;19.11;33.85;102631.00;5038702;28;20058;-71
2021/04/24 00:13:43;;;;;;;5.22;2.17;;;;;;;19.10;33.77;102631.97;5061103;28;20089;-73
2021/04/24 00:16:08;;;;;;;5.43;2.38;;;;;;;19.13;34.17;102641.81;5041796;28;20021;-73
2021/04/24 00:18:34;;;;;;;6.93;2.38;;;;;;;19.07;33.71;102627.53;5050234;28;20436;-72
2021/04/24 00:20:59;;;;;;;6.65;2.20;;;;;;;19.09;33.62;102633.78;5049886;28;20024;-72
2021/04/24 00:23:24;;;;;;;6.75;2.20;;;;;;;19.07;33.81;102632.06;5057223;28;20073;-73
2021/04/24 00:25:50;;;;;;;5.10;2.60;;;;;;;19.06;33.60;102622.19;5036071;28;20032;-72
2021/04/24 00:28:15;;;;;;;6.40;2.58;;;;;;;19.07;33.83;102629.38;5070394;28;21452;-72
2021/04/24 00:30:40;;;;;;;6.43;2.28;;;;;;;19.09;33.30;102625.69;5060809;28;20020;-72
2021/04/24 00:33:06;;;;;;;6.45;2.60;;;;;;;19.07;33.60;102619.44;5055836;28;20115;-73
2021/04/24 00:35:31;;;;;;;6.03;2.15;;;;;;;19.06;33.84;102619.50;5054510;28;20044;-73
2021/04/24 00:37:57;;;;;;;6.97;2.60;;;;;;;19.06;33.68;102623.09;5041406;28;20377;-73
2021/04/24 00:40:22;;;;;;;5.88;2.72;;;;;;;19.05;33.64;102623.13;5057371;28;20027;-74
2021/04/24 00:42:47;;;;;;;5.78;2.28;;;;;;;19.08;33.65;102626.63;5051132;28;20103;-73
2021/04/24 00:45:14;;;;;;;6.68;2.47;;;;;;;19.06;33.95;102622.19;5064529;28;20020;-73
2021/04/24 00:47:39;;;;;;;6.32;2.60;;;;;;;19.05;33.63;102625.84;5058639;28;20049;-73
2021/04/24 00:50:06;;;;;;;6.07;2.60;;;;;;;19.05;33.99;102633.94;5063221;28;20028;-72
2021/04/24 00:52:31;;;;;;;6.05;2.30;;;;;;;19.05;33.71;102631.22;5055271;28;20025;-73
2021/04/24 00:54:56;;;;;;;6.90;2.95;;;;;;;19.05;33.74;102631.22;5056804;28;20024;-73
2021/04/24 00:57:22;;;;;;;7.38;2.70;;;;;;;19.04;33.61;102629.44;5059894;28;20092;-73
2021/04/24 00:59:47;;;;;;;5.72;2.20;;;;;;;19.03;33.86;102631.28;5045445;28;20020;-72
2021/04/24 01:02:12;;;;;;;6.97;2.83;;;;;;;19.05;33.62;102628.53;5051082;28;20029;-73
2021/04/24 01:04:38;;;;;;;7.97;3.00;;;;;;;19.04;33.94;102626.75;5058936;28;20024;-72
2021/04/24 01:07:04;;;;;;;4.72;2.25;;;;;;;19.00;33.69;102617.88;5047877;28;20122;-72
2021/04/24 01:09:30;;;;;;;6.13;2.50;;;;;;;19.02;33.73;102628.63;5053726;28;20027;-73
2021/04/24 01:11:55;;;;;;;6.40;2.70;;;;;;;18.99;34.14;102618.81;5072231;28;20152;-73
2021/04/24 01:14:21;;;;;;;6.28;2.40;;;;;;;19.03;33.75;102622.31;5061470;28;20472;-73
2021/04/24 01:16:46;;;;;;;6.05;2.72;;;;;;;19.04;33.52;102619.56;5052939;28;20107;-73
2021/04/24 01:19:13;;;;;;;6.88;2.53;;;;;;;19.00;33.73;102615.19;5058730;28;20032;-73
2021/04/24 01:21:39;;;;;;;6.05;2.45;;;;;;;19.02;33.71;102620.56;5059597;28;20436;-73
2021/04/24 01:24:05;;;;;;;4.97;2.38;;;;;;;19.01;33.51;102616.06;5057071;28;20114;-73
2021/04/24 01:26:30;;;;;;;5.93;2.72;;;;;;;19.00;33.74;102617.88;5040485;28;20037;-72
2021/04/24 01:28:56;;;;;;;5.32;2.38;;;;;;;19.01;33.65;102613.38;5028195;28;20024;-74
2021/04/24 01:31:21;;;;;;;5.72;2.60;;;;;;;19.03;33.91;102611.50;5044515;28;20051;-74
2021/04/24 01:33:46;;;;;;;7.78;2.50;;;;;;;19.01;33.41;102603.47;5059724;28;20047;-73
2021/04/24 01:36:12;;;;;;;6.07;2.60;;;;;;;19.00;33.82;102617.88;5058050;28;20039;-73
2021/04/24 01:38:37;;;;;;;6.22;2.65;;;;;;;19.02;33.47;102610.63;5057973;28;20032;-73
2021/04/24 01:41:03;;;;;;;5.68;2.45;;;;;;;18.99;33.34;102604.44;5056379;28;20087;-72
2021/04/24 01:43:29;;;;;;;5.55;2.40;;;;;;;18.97;33.39;102605.38;5037178;28;20526;-73
2021/04/24 01:45:54;;;;;;;7.35;2.70;;;;;;;18.97;33.51;102612.59;5075789;28;20013;-74
2021/04/24 01:48:19;;;;;;;5.72;2.47;;;;;;;18.99;33.53;102604.44;5036585;28;20040;-73
2021/04/24 01:50:46;;;;;;;6.85;2.55;;;;;;;19.00;33.16;102609.78;5075532;28;20470;-73
2021/04/24 01:53:15;;;;;;;5.10;2.35;;;;;;;19.00;33.52;102611.63;5037631;28;20591;-73
2021/04/24 01:55:42;;;;;;;6.47;2.85;;;;;;;18.98;33.54;102611.63;5060230;28;20039;-73
2021/04/24 01:58:09;;;;;;;6.43;2.70;;;;;;;18.98;33.66;102608.94;5057205;28;20032;-74
2021/04/24 02:00:39;;;;;;;5.30;2.50;;;;;;;18.99;34.55;102608.03;5045716;28;20071;-72
2021/04/24 02:03:06;;;;;;;6.00;2.78;;;;;;;18.97;33.56;102608.09;5056516;28;20525;-73
2021/04/24 02:05:32;;;;;;;8.45;2.83;;;;;;;18.97;33.57;102616.19;5074215;28;20047;-73
2021/04/24 02:08:08;;;;;;;5.65;2.50;;;;;;;18.98;33.70;102611.63;5051156;28;20024;-74
2021/04/24 02:10:34;;;;;;;5.68;2.90;;;;;;;19.00;33.37;102609.78;5061407;28;20024;-74
2021/04/24 02:13:01;;;;;;;6.03;2.55;;;;;;;19.00;33.74;102606.22;5027194;28;20116;-74
2021/04/24 02:15:26;;;;;;;8.57;2.80;;;;;;;18.99;33.60;102613.44;5040784;28;20516;-73
2021/04/24 02:17:52;;;;;;;5.80;2.40;;;;;;;19.00;34.07;102608.91;5058392;28;20207;-73
2021/04/24 02:20:17;;;;;;;8.63;3.00;;;;;;;19.00;33.34;102598.13;5040893;28;20025;-73
2021/04/24 02:22:43;;;;;;;5.10;2.45;;;;;;;19.01;33.64;102607.97;5024619;28;23175;-73
2021/04/24 02:25:08;;;;;;;5.72;2.47;;;;;;;19.01;33.62;102611.56;5047802;28;20024;-73
2021/04/24 02:27:34;;;;;;;6.60;2.67;;;;;;;18.96;34.93;102608.13;5040496;28;20064;-72
2021/04/24 02:29:59;;;;;;;7.45;2.80;;;;;;;19.04;33.31;102613.25;5079486;28;20470;-73
2021/04/24 02:32:27;;;;;;;7.80;2.60;;;;;;;19.02;33.53;102609.75;5063825;28;20040;-73
2021/04/24 02:34:52;;;;;;;7.53;2.60;;;;;;;19.02;33.44;102609.75;5057618;28;20104;-73
2021/04/24 02:37:18;;;;;;;5.65;2.58;;;;;;;19.02;33.16;102610.63;5057196;28;20803;-73
2021/04/24 02:39:45;;;;;;;6.88;2.70;;;;;;;18.99;33.39;102610.72;5064354;28;20017;-73
2021/04/24 02:42:13;;;;;;;6.35;3.03;;;;;;;18.99;33.02;102610.72;5063618;28;20123;-74
2021/04/24 02:44:38;;;;;;;7.85;3.10;;;;;;;19.01;33.33;102607.97;5064139;28;20028;-73
2021/04/24 02:47:04;;;;;;;7.15;3.17;;;;;;;19.03;33.36;102607.00;5060107;28;20048;-73
2021/04/24 02:49:29;;;;;;;8.43;2.40;;;;;;;19.02;33.21;102601.69;5063890;28;20041;-73
2021/04/24 02:51:55;;;;;;;6.80;2.85;;;;;;;19.02;33.42;102607.94;5046145;28;20040;-73
2021/04/24 02:54:21;;;;;;;6.45;2.50;;;;;;;18.99;33.20;102599.94;5059825;28;20150;-73
2021/04/24 02:56:46;;;;;;;5.53;2.58;;;;;;;19.02;33.44;102610.63;5046050;28;20081;-72
2021/04/24 02:59:12;;;;;;;6.35;2.50;;;;;;;19.01;33.03;102606.19;5041310;28;20025;-74
2021/04/24 03:01:37;;;;;;;5.93;2.47;;;;;;;19.02;33.35;102607.06;5059057;28;20085;-73
2021/04/24 03:04:03;;;;;;;8.05;2.88;;;;;;;19.04;33.07;102615.97;5041311;28;20484;-73
2021/04/24 03:06:28;;;;;;;6.97;2.60;;;;;;;19.05;33.44;102609.66;5046027;28;20103;-73
2021/04/24 03:08:53;;;;;;;8.35;3.17;;;;;;;19.05;33.48;102607.84;5025208;28;20112;-73
2021/04/24 03:11:19;;;;;;;5.93;2.85;;;;;;;19.06;33.13;102601.50;5042668;28;20057;-73
2021/04/24 03:13:44;;;;;;;6.40;3.03;;;;;;;19.04;33.54;102600.69;5054799;28;20462;-73
2021/04/24 03:16:10;;;;;;;5.38;2.47;;;;;;;19.03;33.42;102607.00;5056187;28;20025;-73
2021/04/24 03:18:35;;;;;;;6.80;2.75;;;;;;;19.06;33.55;102611.41;5040210;28;20136;-73
2021/04/24 03:21:00;;;;;;;6.15;2.97;;;;;;;19.05;33.50;102613.25;5057002;28;20032;-73
2021/04/24 03:23:26;;;;;;;7.28;2.70;;;;;;;19.06;33.48;102609.59;5078118;28;20055;-73
2021/04/24 03:25:51;;;;;;;6.45;2.72;;;;;;;19.06;33.62;102612.28;5038969;28;20100;-74
2021/04/24 03:28:16;;;;;;;5.68;2.50;;;;;;;19.09;32.85;102608.63;5049741;28;20033;-73
2021/04/24 03:30:42;;;;;;;7.45;2.78;;;;;;;19.07;33.05;102605.97;5065328;28;20594;-74
2021/04/24 03:33:07;;;;;;;5.53;2.55;;;;;;;19.09;33.50;102604.09;5039516;28;20079;-74
2021/04/24 03:35:32;;;;;;;6.28;2.70;;;;;;;19.11;33.46;102604.03;5064021;28;20024;-74
2021/04/24 03:37:58;;;;;;;6.38;2.80;;;;;;;19.08;33.51;102601.47;5062409;28;20138;-73
2021/04/24 03:40:23;;;;;;;8.18;2.70;;;;;;;19.10;33.54;102605.00;5053463;28;20135;-73
2021/04/24 03:42:48;;;;;;;5.97;2.70;;;;;;;19.11;33.57;102609.44;5057946;28;20024;-73
2021/04/24 03:45:21;;;;;;;6.70;2.75;;;;;;;19.12;33.08;102613.03;5043498;28;20031;-72
2021/04/24 03:47:47;;;;;;;;;;;;;;;19.12;33.36;102610.34;5046112;28;20020;-72
2021/04/24 03:50:13;;;;;;;6.07;2.65;;;;;;;19.13;33.01;102606.75;5054707;28;19917;-73
2021/04/24 03:52:38;;;;;;;6.80;2.85;;;;;;;19.10;32.90;102610.38;5072360;28;20044;-72
2021/04/24 03:55:04;;;;;;;6.15;2.85;;;;;;;19.12;33.37;102605.88;5040178;28;20025;-73
2021/04/24 03:57:30;;;;;;;6.47;2.33;;;;;;;19.13;33.21;102613.00;5045349;28;20090;-73
2021/04/24 03:59:55;;;;;;;7.05;2.67;;;;;;;19.08;33.25;102602.34;5057350;28;20509;-73
2021/04/24 04:02:20;;;;;;;6.25;2.80;;;;;;;19.12;33.34;102613.94;5062766;28;20058;-73
2021/04/24 04:04:47;;;;;;;6.93;2.75;;;;;;;19.12;33.05;102611.25;5056221;28;20036;-73
2021/04/24 04:07:12;;;;;;;5.72;2.55;;;;;;;19.12;36.88;102615.72;5063665;28;20031;-73
2021/04/24 04:09:37;;;;;;;6.15;2.78;;;;;;;19.10;33.83;102613.09;5063555;28;20032;-74
2021/04/24 04:12:03;;;;;;;7.70;3.20;;;;;;;19.12;33.95;102622.03;5061591;28;20110;-74
2021/04/24 04:14:28;;;;;;;5.85;2.75;;;;;;;19.13;32.91;102620.25;5044238;28;20043;-74
2021/04/24 04:16:54;;;;;;;7.30;2.85;;;;;;;19.13;33.17;102617.53;5061209;28;20033;-74
2021/04/24 04:19:19;;;;;;;6.70;2.80;;;;;;;19.15;33.24;102616.53;5060720;28;20051;-74
2021/04/24 04:21:44;;;;;;;5.00;2.50;;;;;;;19.13;33.19;102621.09;5076829;28;20460;-74
2021/04/24 04:24:10;;;;;;;5.93;2.53;;;;;;;19.16;32.91;102623.72;5063528;28;20024;-74
2021/04/24 04:26:35;;;;;;;6.28;2.80;;;;;;;19.15;33.23;102621.03;5067529;28;20505;-73
2021/04/24 04:29:00;;;;;;;6.63;3.08;;;;;;;19.15;33.15;102624.63;5070199;28;20100;-73
2021/04/24 04:31:26;;;;;;;6.78;3.05;;;;;;;19.16;33.10;102625.53;5052915;28;20069;-73
2021/04/24 04:33:51;;;;;;;7.88;3.05;;;;;;;19.16;32.94;102625.53;5056685;28;20047;-75
2021/04/24 04:36:16;;;;;;;6.28;2.70;;;;;;;19.14;33.17;102624.69;5061432;28;20435;-73
2021/04/24 04:38:42;;;;;;;6.38;2.67;;;;;;;19.14;32.80;102630.09;5024681;28;20050;-73
2021/04/24 04:41:08;;;;;;;6.65;2.85;;;;;;;19.16;32.90;102631.81;5033024;28;20036;-73
2021/04/24 04:43:33;;;;;;;6.10;2.85;;;;;;;19.16;32.83;102625.53;5049741;28;20082;-73
2021/04/24 04:45:59;;;;;;;7.20;2.75;;;;;;;19.16;33.27;102633.63;5046118;28;20065;-74
2021/04/24 04:48:24;;;;;;;6.38;2.95;;;;;;;19.14;33.16;102628.28;5069578;28;20055;-73
2021/04/24 04:50:49;;;;;;;7.72;3.35;;;;;;;19.16;33.12;102625.53;5044359;28;20457;-73
2021/04/24 04:53:15;;;;;;;7.03;2.88;;;;;;;19.15;32.94;102623.75;5042273;28;20027;-73
2021/04/24 04:55:40;;;;;;;8.40;2.83;;;;;;;19.16;32.80;102623.72;5044010;28;20416;-74
2021/04/24 04:58:05;;;;;;;6.78;2.70;;;;;;;19.18;33.13;102624.53;5069006;28;20024;-73
2021/04/24 05:00:31;;;;;;;5.72;2.53;;;;;;;19.19;32.89;102623.63;5068358;28;20050;-74
2021/04/24 05:02:56;;;;;;;6.68;2.85;;;;;;;19.20;33.01;102627.19;5072704;28;20443;-73
2021/04/24 05:05:22;;;;;;;7.45;2.75;;;;;;;19.18;33.19;102615.56;5053508;28;20080;-73
2021/04/24 05:07:49;;;;;;;7.75;3.00;;;;;;;19.16;33.62;102612.94;5073032;28;20048;-74
2021/04/24 05:10:14;;;;;;;7.20;3.15;;;;;;;19.20;33.10;102619.09;5024844;28;20021;-73
2021/04/24 05:12:40;;;;;;;6.55;3.00;;;;;;;19.22;33.08;102619.06;5056575;28;20539;-72
2021/04/24 05:15:05;;;;;;;8.70;3.40;;;;;;;19.22;33.14;102616.34;5040659;28;20073;-72
2021/04/24 05:17:31;;;;;;;6.30;2.92;;;;;;;19.24;32.82;102615.34;5055025;28;20554;-73
2021/04/24 05:19:56;;;;;;;6.43;2.80;;;;;;;19.20;32.92;102614.56;5062405;28;20092;-74
2021/04/24 05:22:21;;;;;;;7.63;2.67;;;;;;;19.23;32.79;102613.59;5035996;28;20101;-73
2021/04/24 05:24:47;;;;;;;7.82;2.70;;;;;;;19.24;33.47;102625.28;5046025;28;20028;-74
2021/04/24 05:27:12;;;;;;;6.32;2.83;;;;;;;19.26;33.80;102620.69;5054848;28;20057;-73
2021/04/24 05:29:37;;;;;;;8.38;2.88;;;;;;;19.25;33.19;102622.53;5055489;28;20360;-73
2021/04/24 05:32:03;;;;;;;7.50;3.10;;;;;;;19.24;33.18;102625.28;5061757;28;20024;-72
2021/04/24 05:34:29;;;;;;;8.52;3.33;;;;;;;19.25;32.99;102621.66;5060567;28;20036;-73
2021/04/24 05:36:54;;;;;;;8.35;3.00;;;;;;;19.21;33.01;102612.78;5023632;28;20013;-73
2021/04/24 05:39:20;;;;;;;9.10;2.92;;;;;;;19.23;34.86;102621.69;5020927;28;20041;-73
2021/04/24 05:41:45;;;;;;;7.35;3.20;;;;;;;19.31;33.11;102632.25;5034531;28;20069;-73
2021/04/24 05:44:10;;;;;;;7.07;3.22;;;;;;;19.30;33.04;102625.06;5063018;28;20024;-73
2021/04/24 05:46:36;;;;;;;6.40;3.17;;;;;;;19.30;33.06;102625.06;5036911;28;20040;-74
2021/04/24 05:49:01;;;;;;;6.10;2.85;;;;;;;19.29;35.90;102629.56;5045423;28;20480;-73
2021/04/24 05:51:26;;;;;;;9.77;3.42;;;;;;;19.29;33.36;102623.31;5043360;28;20088;-73
2021/04/24 05:53:52;;;;;;;6.57;3.00;;;;;;;19.33;33.15;102627.69;5060234;28;20031;-73
2021/04/24 05:56:18;;;;;;;7.05;3.03;;;;;;;19.32;33.14;102626.78;5035958;28;20454;-74
2021/04/24 05:58:43;;;;;;;7.88;2.97;;;;;;;19.32;33.21;102634.00;5042750;28;20056;-74
2021/04/24 06:01:09;;;;;;;7.07;3.25;;;;;;;19.03;35.58;102638.47;5063491;28;20106;-73
2021/04/24 06:03:34;;;;;;;8.55;3.70;;;;;;;19.11;33.19;102635.56;5067859;28;20832;-73
2021/04/24 06:05:59;;;;;;;5.82;2.72;;;;;;;19.24;33.86;102645.03;5051134;28;20096;-73
2021/04/24 06:08:25;;;;;;;7.85;3.30;;;;;;;19.26;33.47;102643.16;5058476;28;20484;-73
2021/04/24 06:10:50;;;;;;;8.77;3.95;;;;;;;19.15;33.34;102645.31;5080654;28;20096;-72
2021/04/24 06:13:16;;;;;;;12.13;3.97;;;;;;;18.92;34.55;102649.59;5039943;28;20365;-72
2021/04/24 06:15:41;;;;;;;7.88;3.88;;;;;;;18.90;35.71;102641.56;5066797;28;20025;-73
2021/04/24 06:18:06;;;;;;;9.70;4.50;;;;;;;18.87;33.37;102652.41;5066267;28;20453;-75
2021/04/24 06:20:32;;;;;;;8.35;3.95;;;;;;;18.80;33.39;102640.94;5068437;28;20171;-73
2021/04/24 06:22:57;;;;;;;8.68;4.07;;;;;;;18.66;33.80;102657.53;5068557;28;20029;-72
2021/04/24 06:25:23;;;;;;;11.43;4.68;;;;;;;18.56;34.02;102648.84;5065828;28;20028;-71
2021/04/24 06:27:48;;;;;;;12.48;4.55;;;;;;;18.48;33.79;102658.97;5047950;28;20044;-71
2021/04/24 06:30:15;;;;;;;11.40;4.47;;;;;;;18.61;33.48;102648.72;5043194;28;20116;-72
2021/04/24 06:32:40;;;;;;;11.77;4.82;;;;;;;18.64;33.81;102648.63;5033321;28;20423;-74
2021/04/24 06:35:06;;;;;;;10.43;5.18;;;;;;;18.43;34.33;102660.91;5043612;28;20099;-74
2021/04/24 06:37:31;;;;;;;11.85;4.57;;;;;;;18.49;34.18;102656.22;5057798;28;20035;-71
2021/04/24 06:39:57;;;;;;;12.68;5.85;;;;;;;18.43;33.77;102651.00;5063856;28;20032;-71
2021/04/24 06:42:22;;;;;;;10.13;4.55;;;;;;;18.27;35.13;102647.84;5055505;28;20859;-72
2021/04/24 06:44:48;;;;;;;16.30;5.20;;;;;;;18.23;34.21;102657.84;5043528;28;20106;-69
2021/04/24 06:47:13;;;;;;;10.93;5.22;;;;;;;18.13;34.61;102664.38;5044510;28;20037;-71
2021/04/24 06:49:39;;;;;;;15.48;5.55;;;;;;;18.15;34.26;102651.78;5051664;28;20025;-71
2021/04/24 06:52:04;;;;;;;11.43;5.32;;;;;;;18.21;34.24;102646.22;5021633;28;20024;-73
2021/04/24 06:54:30;;;;;;;12.85;5.25;;;;;;;18.05;34.44;102651.13;5053899;28;20078;-71
2021/04/24 06:56:55;;;;;;;13.88;5.05;;;;;;;18.02;34.44;102648.50;5055087;28;20020;-70
2021/04/24 06:59:21;;;;;;;11.52;5.35;;;;;;;18.01;34.80;102647.63;5062251;28;20104;-71
2021/04/24 07:01:46;;;;;;;12.88;5.05;;;;;;;18.06;34.58;102638.53;5059091;28;20063;-71
2021/04/24 07:04:11;;;;;;;13.70;5.18;;;;;;;17.96;34.37;102635.19;5058451;28;20095;-71
2021/04/24 07:06:37;;;;;;;12.90;5.50;;;;;;;17.90;34.78;102645.22;5060535;28;20032;-71
2021/04/24 07:09:03;;;;;;;14.18;5.15;;;;;;;17.78;34.56;102641.00;5050114;28;20085;-71
2021/04/24 07:11:28;;;;;;;12.85;5.20;;;;;;;17.30;36.04;102637.69;5051321;28;20029;-71
2021/04/24 07:13:53;;;;;;;13.27;4.63;;;;;;;17.17;36.82;102644.31;5060051;28;20483;-72
2021/04/24 07:16:19;;;;;;;10.82;5.00;;;;;;;17.24;36.20;102645.94;5061082;28;20040;-72
2021/04/24 07:18:44;;;;;;;9.82;4.40;;;;;;;17.16;35.82;102643.41;5041615;28;20032;-71
2021/04/24 07:21:10;;;;;;;11.07;4.68;;;;;;;17.28;35.68;102641.38;5064520;28;20032;-73
2021/04/24 07:23:36;;;;;;;11.70;4.88;;;;;;;17.33;35.98;102650.19;5016947;28;20055;-71
2021/04/24 07:26:01;;;;;;;13.07;4.28;;;;;;;17.14;35.70;102647.03;5021603;28;20401;-72
2021/04/24 07:28:27;;;;;;;12.02;4.25;;;;;;;17.14;36.19;102649.72;5052887;28;20039;-72
2021/04/24 07:30:52;;;;;;;11.77;4.32;;;;;;;17.13;35.77;102653.34;5057742;28;20356;-71
2021/04/24 07:33:18;;;;;;;10.60;4.25;;;;;;;17.21;35.55;102645.97;5060073;28;20028;-70
2021/04/24 07:35:44;;;;;;;10.65;4.30;;;;;;;17.07;35.50;102646.28;5023521;28;20502;-71
2021/04/24 07:38:09;;;;;;;10.77;5.22;;;;;;;16.92;36.05;102644.81;5041047;28;20045;-71
2021/04/24 07:40:34;;;;;;;10.77;4.68;;;;;;;17.04;36.12;102639.19;5058008;28;20557;-71
2021/04/24 07:43:00;;;;;;;9.95;4.78;;;;;;;16.88;36.38;102643.13;5059633;28;20024;-71
2021/04/24 07:45:25;;;;;;;11.05;4.97;;;;;;;16.94;36.33;102642.97;5057546;28;20042;-72
2021/04/24 07:47:50;;;;;;;12.02;4.55;;;;;;;17.03;36.09;102637.41;5059894;28;20056;-72
2021/04/24 07:50:19;;;;;;;9.88;4.50;;;;;;;16.97;35.95;102644.72;5055716;28;20048;-72
2021/04/24 07:52:47;;;;;;;11.70;4.60;;;;;;;16.76;36.03;102644.25;5070945;28;20051;-71
2021/04/24 07:55:13;;;;;;;10.48;4.90;;;;;;;16.93;35.97;102646.59;5053564;28;20107;-71
2021/04/24 07:57:38;;;;;;;9.80;4.95;;;;;;;16.80;36.28;102636.13;5055295;28;20570;-71
2021/04/24 08:00:05;;;;;;;11.35;4.70;;;;;;;16.93;36.03;102631.38;5052227;28;20033;-71
2021/04/24 08:02:30;;;;;;;17.23;5.03;;;;;;;16.87;36.25;102638.66;5052817;28;20047;-71
2021/04/24 08:04:56;;;;;;;11.30;4.38;;;;;;;16.83;36.50;102630.66;5058957;28;20085;-73
2021/04/24 08:07:21;;;;;;;10.75;4.78;;;;;;;16.89;36.11;102634.13;5040634;28;20499;-72
2021/04/24 08:09:47;;;;;;;14.05;5.05;;;;;;;17.06;37.95;102628.38;5059122;28;20050;-73
2021/04/24 08:12:12;;;;;;;11.10;4.68;;;;;;;16.86;37.00;102628.84;5061412;28;20603;-73
2021/04/24 08:14:37;;;;;;;13.40;4.97;;;;;;;16.63;37.34;102630.19;5029053;28;20028;-72
2021/04/24 08:17:02;;;;;;;12.95;5.20;;;;;;;16.38;37.35;102628.03;5058661;28;20035;-72
2021/04/24 08:19:28;;;;;;;14.23;5.32;;;;;;;16.28;37.81;102632.69;5042418;28;20642;-73
2021/04/24 08:21:54;;;;;;;15.98;4.80;;;;;;;16.58;37.35;102631.16;5043201;28;20024;-71
2021/04/24 08:24:20;;;;;;;13.32;5.28;;;;;;;16.49;37.68;102635.88;5074612;28;20110;-71
2021/04/24 08:26:45;;;;;;;11.65;4.75;;;;;;;16.28;37.79;102633.56;5054987;28;20032;-70
2021/04/24 08:29:11;;;;;;;12.80;5.30;;;;;;;16.30;38.32;102639.81;5056191;28;20021;-70
2021/04/24 08:31:36;;;;;;;13.32;5.05;;;;;;;16.33;38.49;102633.47;5074859;28;20092;-72
2021/04/24 08:34:02;;;;;;;13.45;4.97;;;;;;;16.45;37.70;102640.41;5036679;28;20527;-70
2021/04/24 08:36:28;;;;;;;13.00;4.70;;;;;;;16.51;37.95;102648.34;5055573;28;20044;-70
2021/04/24 08:38:53;;;;;;;9.55;4.43;;;;;;;16.50;37.12;102638.53;5057228;28;20037;-69
2021/04/24 08:41:18;;;;;;;10.20;4.15;;;;;;;16.58;36.87;102649.97;5056249;28;20097;-69
2021/04/24 08:43:44;;;;;;;13.23;4.22;;;;;;;16.79;36.38;102638.81;5026516;28;20054;-72
2021/04/24 08:46:09;;;;;;;14.45;4.57;;;;;;;16.86;36.50;102639.59;5056116;28;20021;-70
2021/04/24 08:48:34;;;;;;;11.05;3.78;;;;;;;17.05;35.83;102642.72;5057441;28;20626;-69
2021/04/24 08:51:00;;;;;;;10.82;3.38;;;;;;;17.32;36.10;102642.19;5063897;28;20029;-70
2021/04/24 08:53:25;;;;;;;13.77;4.00;;;;;;;17.86;35.00;102621.09;5044753;28;20479;-71
2021/04/24 08:55:51;;;;;;;14.57;3.83;;;;;;;18.23;34.58;102625.50;5043150;28;20043;-70
2021/04/24 08:58:17;;;;;;;13.23;3.47;;;;;;;18.45;34.75;102621.31;5059433;28;20052;-68
2021/04/24 09:00:43;;;;;;;9.90;3.42;;;;;;;18.64;34.98;102628.84;5045953;28;20016;-71
2021/04/24 09:03:10;;;;;;;9.18;3.50;;;;;;;18.65;34.75;102626.13;5038905;28;20112;-74
2021/04/24 09:05:35;;;;;;;10.77;2.85;;;;;;;18.76;35.18;102619.53;5044191;28;20029;-73
2021/04/24 09:08:02;;;;;;;12.20;3.55;;;;;;;18.82;35.08;102613.94;5045650;28;20512;-71
2021/04/24 09:10:28;;;;;;;7.32;2.63;;;;;;;18.84;34.58;102612.97;5022590;28;20605;-72
2021/04/24 09:12:53;;;;;;;9.40;2.88;;;;;;;18.87;34.35;102619.22;5043455;28;20051;-71
2021/04/24 09:15:25;;;;;;;8.45;2.80;;;;;;;19.02;34.94;102618.72;5052607;28;20089;-73
2021/04/24 09:18:04;;;;;;;15.02;4.20;;;;;;;18.08;34.78;102621.41;5038252;28;20028;-73
2021/04/24 09:20:52;;;;;;;10.45;3.45;;;;;;;18.04;35.09;102619.69;5041823;28;20029;-72
2021/04/24 09:23:31;;;;;;;12.13;3.40;;;;;;;18.46;34.98;102621.28;5046613;28;20059;-73
2021/04/24 09:26:04;;;;;;;9.60;3.05;;;;;;;18.83;35.43;102619.28;5036776;28;20057;-72
2021/04/24 09:28:31;;;;;;;11.30;3.15;;;;;;;19.02;35.64;102609.75;5038741;28;20039;-72
2021/04/24 09:30:58;;;;;;;11.25;3.25;;;;;;;19.11;35.07;102614.84;5043034;28;20081;-73
2021/04/24 09:33:23;;;;;;;10.43;2.90;;;;;;;19.18;34.39;102610.19;5061004;28;20331;-72
2021/04/24 09:35:53;;;;;;;9.02;3.33;;;;;;;19.22;36.03;102609.13;5059528;28;20021;-72
2021/04/24 09:38:20;;;;;;;7.35;2.53;;;;;;;19.27;35.30;102600.91;5049586;28;20434;-72
2021/04/24 09:41:06;;;;;;;7.90;2.80;;;;;;;19.31;36.53;102597.19;5061232;28;20020;-72
2021/04/24 09:44:04;;;;;;;9.52;3.10;;;;;;;19.37;35.87;102596.09;5049508;28;20134;-72
2021/04/24 09:46:52;;;;;;;7.82;2.67;;;;;;;19.37;35.11;102593.41;5071628;28;20074;-73
2021/04/24 09:49:27;;;;;;;9.43;2.80;;;;;;;19.41;36.33;102593.22;5042728;28;20032;-73
2021/04/24 09:51:53;;;;;;;8.85;2.70;;;;;;;19.46;34.75;102597.59;5063693;28;20036;-73
2021/04/24 09:54:35;;;;;;;8.38;2.63;;;;;;;19.45;36.34;102594.00;5064707;28;20135;-73
2021/04/24 09:57:07;;;;;;;8.98;2.53;;;;;;;19.50;37.55;102596.53;5027327;28;20028;-73
2021/04/24 09:59:50;;;;;;;5.40;2.67;;;;;;;19.50;36.81;102588.44;5063463;28;20024;-72
2021/04/24 10:02:15;;;;;;;7.25;2.63;;;;;;;19.58;34.79;102588.19;5045214;28;20035;-73
2021/04/24 10:04:41;;;;;;;7.18;2.80;;;;;;;19.58;35.95;102583.66;5030512;28;20036;-73
2021/04/24 10:07:06;;;;;;;8.63;2.70;;;;;;;19.61;34.90;102583.56;5054955;28;20029;-73
2021/04/24 10:09:32;;;;;;;10.77;2.95;;;;;;;19.65;35.19;102573.53;5044172;28;20080;-72
2021/04/24 10:12:00;;;;;;;7.10;2.50;;;;;;;19.71;33.83;102577.84;5041301;28;20027;-72
2021/04/24 10:14:27;;;;;;;4.82;2.30;;;;;;;19.71;36.05;102578.72;5066137;28;20054;-71
2021/04/24 10:16:52;;;;;;;6.75;2.70;;;;;;;19.74;34.12;102564.22;5020494;28;20069;-73
2021/04/24 10:19:17;;;;;;;7.53;2.40;;;;;;;19.75;34.96;102571.41;5044721;28;20149;-73
2021/04/24 10:21:43;;;;;;;7.47;2.38;;;;;;;19.83;33.17;102565.75;5079314;28;20037;-72
2021/04/24 10:24:09;;;;;;;8.45;2.67;;;;;;;19.87;34.31;102565.56;5043895;28;20044;-72
2021/04/24 10:26:35;;;;;;;9.05;3.15;;;;;;;19.35;30.83;102571.81;5055436;28;20079;-72
2021/04/24 10:29:02;;;;;;;5.93;2.80;;;;;;;19.13;31.26;102571.69;5048419;28;20454;-71
2021/04/24 10:31:28;;;;;;;9.10;3.08;;;;;;;19.00;31.72;102566.63;5066264;28;20101;-71
2021/04/24 10:33:55;;;;;;;7.15;2.58;;;;;;;19.21;32.78;102558.81;5049571;28;20462;-72
2021/04/24 10:36:20;;;;;;;6.50;2.30;;;;;;;19.50;36.90;102558.75;5035806;28;20078;-73
2021/04/24 10:38:46;;;;;;;7.35;2.55;;;;;;;19.65;36.36;102550.13;5050286;28;20029;-72
2021/04/24 10:41:12;;;;;;;7.75;2.20;;;;;;;19.72;32.71;102547.22;5049370;28;20020;-71
2021/04/24 10:43:38;;;;;;;8.93;2.55;;;;;;;19.87;32.84;102551.16;5038544;28;20024;-71
2021/04/24 10:46:36;;;;;;;6.70;2.30;;;;;;;19.87;33.08;102546.66;5059991;28;20042;-71
2021/04/24 10:49:14;;;;;;;9.15;2.45;;;;;;;19.93;33.31;102553.66;5067409;28;20104;-72
2021/04/24 10:51:59;;;;;;;6.22;2.47;;;;;;;19.99;32.34;102547.16;5056789;28;20098;-72
2021/04/24 10:54:25;;;;;;;7.68;2.40;;;;;;;19.97;35.08;102554.41;5061711;28;20040;-72
2021/04/24 10:56:50;;;;;;;6.30;2.10;;;;;;;19.99;33.01;102552.56;5063111;28;20438;-71
2021/04/24 10:59:22;;;;;;;6.15;2.40;;;;;;;20.03;33.23;102551.50;5049592;28;20173;-72
2021/04/24 11:02:06;;;;;;;6.53;2.10;;;;;;;19.99;33.03;102542.63;5064219;28;20163;-71
2021/04/24 11:04:48;;;;;;;5.72;2.33;;;;;;;20.05;32.65;102546.91;5049571;28;20093;-73
2021/04/24 11:07:27;;;;;;;5.15;2.10;;;;;;;20.03;34.07;102552.38;5058996;28;20024;-72
2021/04/24 11:10:11;;;;;;;9.02;2.42;;;;;;;20.05;34.96;102546.91;5032604;28;20032;-73
2021/04/24 11:12:46;;;;;;;7.90;2.17;;;;;;;20.09;33.08;102528.78;5061413;28;20024;-72
2021/04/24 11:15:16;;;;;;;4.97;1.90;;;;;;;20.12;36.23;102524.16;5054496;28;20058;-73
2021/04/24 11:17:42;;;;;;;14.27;3.03;;;;;;;19.87;30.82;102530.44;5046337;28;20072;-69
2021/04/24 11:20:08;;;;;;;11.40;3.20;;;;;;;19.44;30.15;102539.13;5024318;28;20410;-70
2021/04/24 11:22:34;;;;;;;11.93;3.35;;;;;;;19.03;31.23;102520.72;5048546;28;20047;-69